Terminal Aerodrome Forecast
Issued by NWS

Home | Current Version | Previous Version | Text Only | Print | Product List | Glossary On
Versions: 1 2 3 4 5 6 7 8 9 10 11 12 13 14 15
396
FTUS43 KICT 232336
TAFSLN
TAF
KSLN 232336Z 2400/2424 31013KT P6SM SKC
     FM240500 31014KT P6SM SKC WS020/33050KT
     FM241300 33029G41KT P6SM SKC
     FM242200 33020G30KT P6SM SKC=

USA.gov is the U.S. government's official web portal to all federal, state and local government web resources and services.